Time;durP1;ratioP1;P1;durP2;ratioP2;P2;SDS_P1;SDS_P2;PMS_P1;PMS_P2;Temp;Humidity;BMP_temperature;BMP_pressure;BME280_temperature;BME280_humidity;BME280_pressure;Samples;Min_cycle;Max_cycle;Signal;HPM_P1;HPM_P2
2021/05/14 00:03:17;;;;;;;1.33;0.90;;;;;;;13.85;61.94;97026.59;8284384;28;20208;-65
2021/05/14 00:07:20;;;;;;;1.97;1.10;;;;;;;13.83;62.57;97026.72;8285022;28;20248;-65
2021/05/14 00:11:23;;;;;;;1.70;1.10;;;;;;;13.82;62.14;97032.88;8285022;28;20229;-65
2021/05/14 00:15:25;;;;;;;1.73;1.03;;;;;;;13.69;62.12;97024.28;8285407;28;20209;-65
2021/05/14 00:19:28;;;;;;;2.33;0.90;;;;;;;13.67;62.04;97026.16;8284702;28;20205;-65
2021/05/14 00:23:30;;;;;;;1.43;1.00;;;;;;;13.66;62.33;97027.09;8284871;28;20205;-65
2021/05/14 00:27:33;;;;;;;3.10;1.10;;;;;;;13.59;62.70;97020.66;8284792;28;20211;-65
2021/05/14 00:31:36;;;;;;;2.63;0.80;;;;;;;13.59;62.29;97024.09;8284375;28;20230;-65
2021/05/14 00:35:38;;;;;;;0.80;0.80;;;;;;;13.56;61.80;97020.91;8293254;28;20223;-65
2021/05/14 00:39:40;;;;;;;1.00;0.77;;;;;;;13.54;62.11;97023.59;8316808;28;20215;-65
2021/05/14 00:43:44;;;;;;;2.20;0.80;;;;;;;13.49;61.93;97017.91;8316363;28;20207;-65
2021/05/14 00:47:46;;;;;;;2.83;1.00;;;;;;;13.54;61.75;97030.59;8316830;28;20200;-65
2021/05/14 00:51:49;;;;;;;1.63;1.03;;;;;;;13.51;61.83;97020.41;8317224;28;20228;-65
2021/05/14 00:55:51;;;;;;;2.40;0.90;;;;;;;13.60;61.63;97027.53;8316958;28;20205;-66
2021/05/14 00:59:55;;;;;;;1.97;1.30;;;;;;;13.40;62.00;97015.94;8316745;28;20204;-66
2021/05/14 01:03:57;;;;;;;2.37;0.90;;;;;;;13.38;61.54;97016.03;8292707;28;20201;-65
2021/05/14 01:07:59;;;;;;;3.73;1.00;;;;;;;13.41;61.66;97013.25;8283890;28;20237;-65
2021/05/14 01:12:02;;;;;;;1.53;1.20;;;;;;;13.48;61.52;97014.47;8284315;28;20229;-66
2021/05/14 01:16:06;;;;;;;2.87;1.03;;;;;;;13.51;61.36;97010.81;8283879;28;20389;-65
2021/05/14 01:20:10;;;;;;;1.23;1.13;;;;;;;13.51;61.02;97021.22;8283989;28;20206;-65
2021/05/14 01:24:13;;;;;;;1.30;1.10;;;;;;;13.54;61.09;97010.59;8284054;28;20407;-65
2021/05/14 01:28:16;;;;;;;7.43;1.20;;;;;;;13.41;60.31;97009.81;8283572;28;20202;-65
2021/05/14 01:32:18;;;;;;;1.33;0.97;;;;;;;13.47;60.63;97005.00;8284046;28;20516;-65
2021/05/14 01:36:21;;;;;;;2.13;0.90;;;;;;;13.36;60.62;97012.72;8283888;28;20213;-65
2021/05/14 01:40:24;;;;;;;1.70;1.00;;;;;;;13.45;60.54;97006.88;8283445;28;20205;-65
2021/05/14 01:44:26;;;;;;;2.40;1.10;;;;;;;13.47;60.44;97006.78;8283726;28;20218;-66
2021/05/14 01:48:29;;;;;;;2.90;1.20;;;;;;;13.41;60.46;97005.44;8283449;28;20269;-65
2021/05/14 01:52:31;;;;;;;1.63;1.10;;;;;;;13.43;60.99;97010.53;8283506;28;20329;-65
2021/05/14 01:56:35;;;;;;;2.10;1.10;;;;;;;13.30;60.90;97006.19;8288608;28;20217;-65
2021/05/14 02:00:37;;;;;;;1.10;1.00;;;;;;;13.33;60.51;97005.16;8289212;28;20205;-65
2021/05/14 02:04:40;;;;;;;4.40;1.20;;;;;;;13.44;60.02;97005.22;8288965;28;20419;-65
2021/05/14 02:08:42;;;;;;;1.50;1.10;;;;;;;13.36;60.88;97012.72;8288623;28;20303;-65
2021/05/14 02:12:46;;;;;;;1.67;1.23;;;;;;;13.38;60.15;97008.25;8288623;28;20229;-65
2021/05/14 02:16:48;;;;;;;1.43;1.30;;;;;;;13.34;60.37;97006.81;8288334;28;20202;-65
2021/05/14 02:20:51;;;;;;;1.60;1.37;;;;;;;13.29;60.33;97007.13;8288350;28;20205;-65
2021/05/14 02:24:53;;;;;;;3.57;1.40;;;;;;;13.44;60.02;97006.97;8288559;28;20233;-65
2021/05/14 02:28:56;;;;;;;2.37;1.23;;;;;;;13.36;60.23;97012.72;8288156;28;20203;-65
2021/05/14 02:32:59;;;;;;;4.50;1.60;;;;;;;13.34;60.28;97012.00;8288265;28;20229;-66
2021/05/14 02:37:01;;;;;;;1.70;1.23;;;;;;;13.35;60.05;97011.06;8287968;28;20528;-65
2021/05/14 02:41:08;;;;;;;2.70;1.40;;;;;;;13.32;60.15;97006.09;8287874;28;20526;-66
2021/05/14 02:45:13;;;;;;;3.23;1.53;;;;;;;13.37;60.10;97009.19;8287968;28;20504;-65
2021/05/14 02:49:15;;;;;;;1.83;1.50;;;;;;;13.32;59.88;97002.66;8287586;28;20268;-65
2021/05/14 02:53:18;;;;;;;1.50;1.20;;;;;;;13.28;60.49;97002.84;8287529;28;20546;-65
2021/05/14 02:57:21;;;;;;;2.17;1.53;;;;;;;13.32;60.38;97000.06;8287253;28;20202;-65
2021/05/14 03:01:25;;;;;;;2.80;1.53;;;;;;;13.33;60.22;97005.16;8287302;28;20269;-65
2021/05/14 03:05:28;;;;;;;1.73;1.53;;;;;;;13.24;60.32;97005.78;8286301;28;20289;-65
2021/05/14 03:09:30;;;;;;;1.67;1.40;;;;;;;13.24;60.03;97013.56;8286757;28;20209;-65
2021/05/14 03:13:32;;;;;;;1.67;1.50;;;;;;;13.26;60.13;97006.50;8286737;28;20212;-65
2021/05/14 03:17:36;;;;;;;2.30;1.47;;;;;;;13.22;60.07;97005.06;8291572;28;20197;-65
2021/05/14 03:21:38;;;;;;;1.63;1.50;;;;;;;13.27;60.05;97010.78;8296994;28;20205;-65
2021/05/14 03:25:41;;;;;;;2.87;1.30;;;;;;;13.24;59.58;97011.78;8309784;28;20237;-65
2021/05/14 03:29:43;;;;;;;2.03;1.40;;;;;;;13.28;59.60;97017.63;8286396;28;20208;-65
2021/05/14 03:33:46;;;;;;;2.03;1.40;;;;;;;13.16;59.98;97015.88;8291670;28;20200;-65
2021/05/14 03:37:49;;;;;;;2.17;1.50;;;;;;;13.21;59.47;97011.19;8318420;28;20212;-65
2021/05/14 03:41:53;;;;;;;3.17;1.43;;;;;;;13.17;59.66;97010.56;8318356;28;20227;-65
2021/05/14 03:45:56;;;;;;;2.00;1.47;;;;;;;13.18;59.59;97014.84;8318285;28;20216;-65
2021/05/14 03:50:00;;;;;;;1.80;1.30;;;;;;;13.10;59.71;97012.78;8318064;28;20239;-65
2021/05/14 03:54:03;;;;;;;2.43;1.63;;;;;;;13.16;59.57;97010.69;8286155;28;20209;-65
2021/05/14 03:58:06;;;;;;;1.50;1.40;;;;;;;13.14;59.75;97018.59;8285525;28;20214;-65
2021/05/14 04:02:09;;;;;;;4.77;1.40;;;;;;;13.19;59.57;97023.44;8285393;28;20206;-65
2021/05/14 04:06:12;;;;;;;1.80;1.40;;;;;;;13.11;59.79;97029.19;8285423;28;20544;-65
2021/05/14 04:10:19;;;;;;;3.23;1.60;;;;;;;13.07;59.92;97025.16;8284792;28;20233;-65
2021/05/14 04:14:31;;;;;;;1.93;1.50;;;;;;;13.08;60.10;97021.63;8285033;28;20202;-65
2021/05/14 04:18:49;;;;;;;6.20;1.23;;;;;;;13.04;60.25;97026.19;8284654;28;20324;-65
2021/05/14 04:22:52;;;;;;;1.97;1.30;;;;;;;13.12;60.08;97030.88;8284838;28;20228;-65
2021/05/14 04:26:56;;;;;;;3.23;1.83;;;;;;;13.20;60.02;97028.56;8306006;28;20197;-65
2021/05/14 04:30:59;;;;;;;3.40;1.40;;;;;;;13.10;59.80;97032.75;8317312;28;20228;-65
2021/05/14 04:35:01;;;;;;;5.27;1.73;;;;;;;13.22;59.27;97038.84;8317021;28;20205;-65
2021/05/14 04:39:06;;;;;;;2.93;1.63;;;;;;;13.30;59.43;97040.00;8316895;28;20522;-65
2021/05/14 04:43:08;;;;;;;3.20;1.40;;;;;;;13.20;59.48;97036.34;8291380;28;20216;-65
2021/05/14 04:47:11;;;;;;;2.20;1.60;;;;;;;13.18;59.43;97034.81;8283737;28;20497;-65
2021/05/14 04:51:13;;;;;;;3.80;1.50;;;;;;;13.23;59.45;97030.09;8283917;28;20236;-65
2021/05/14 04:55:16;;;;;;;2.17;1.20;;;;;;;13.27;59.32;97037.59;8284328;28;20207;-65
2021/05/14 04:59:19;;;;;;;3.90;1.50;;;;;;;13.22;58.91;97037.06;8284382;28;20207;-65
2021/05/14 05:03:21;;;;;;;3.87;1.30;;;;;;;13.24;59.25;97036.97;8283776;28;20215;-65
2021/05/14 05:07:24;;;;;;;2.80;1.50;;;;;;;13.14;59.43;97043.75;8283938;28;20241;-65
2021/05/14 05:11:27;;;;;;;2.57;1.70;;;;;;;13.25;59.36;97049.00;8284095;28;20275;-65
2021/05/14 05:15:30;;;;;;;3.97;1.50;;;;;;;13.27;58.92;97050.59;8283417;28;20201;-65
2021/05/14 05:19:32;;;;;;;5.93;2.00;;;;;;;13.24;58.65;97048.19;8283560;28;20206;-66
2021/05/14 05:23:34;;;;;;;3.97;2.00;;;;;;;13.30;58.38;97052.16;8283178;28;20401;-65
2021/05/14 05:27:38;;;;;;;3.27;1.30;;;;;;;13.30;58.24;97046.97;8284196;28;20213;-65
2021/05/14 05:31:40;;;;;;;2.63;1.63;;;;;;;13.46;57.77;97051.91;8289498;28;20226;-66
2021/05/14 05:35:43;;;;;;;3.77;2.00;;;;;;;13.55;57.82;97063.44;8289703;28;20276;-67
2021/05/14 05:39:45;;;;;;;5.57;1.60;;;;;;;13.50;57.51;97058.59;8289788;28;20205;-66
2021/05/14 05:43:48;;;;;;;2.17;1.13;;;;;;;13.60;57.97;97063.97;8289278;28;20205;-66
2021/05/14 05:47:51;;;;;;;3.90;1.43;;;;;;;13.65;57.24;97065.31;8289121;28;20273;-66
2021/05/14 05:51:55;;;;;;;3.87;1.20;;;;;;;13.80;57.45;97062.53;8289358;28;20536;-66
2021/05/14 05:55:58;;;;;;;2.63;1.50;;;;;;;13.83;57.05;97070.94;8289085;28;20563;-66
2021/05/14 06:00:02;;;;;;;2.53;1.20;;;;;;;13.90;57.31;97068.75;8289208;28;20393;-66
2021/05/14 06:04:04;;;;;;;5.00;1.47;;;;;;;14.03;56.99;97071.28;8288031;28;20208;-66
2021/05/14 06:08:08;;;;;;;2.03;1.30;;;;;;;13.97;56.46;97080.34;8288501;28;20238;-66
2021/05/14 06:12:11;;;;;;;2.20;0.97;;;;;;;14.09;56.30;97078.66;8280575;28;20241;-66
2021/05/14 06:16:14;;;;;;;2.07;1.30;;;;;;;14.23;56.48;97075.03;8288519;28;20218;-66
2021/05/14 06:20:20;;;;;;;3.27;2.37;;;;;;;14.47;55.60;97077.63;8288297;28;20201;-66
2021/05/14 06:24:23;;;;;;;1.70;1.20;;;;;;;14.75;54.58;97086.00;8288293;28;20280;-66
2021/05/14 06:28:25;;;;;;;2.20;1.30;;;;;;;15.00;54.37;97085.81;8287909;28;20212;-66
2021/05/14 06:32:29;;;;;;;2.50;1.10;;;;;;;15.21;53.93;97096.38;8287741;28;20229;-66
2021/05/14 06:36:31;;;;;;;1.67;1.30;;;;;;;15.10;53.29;97088.53;8287732;28;20201;-66
2021/05/14 06:40:33;;;;;;;2.57;1.63;;;;;;;15.50;52.96;97088.06;8287378;28;20228;-66
2021/05/14 06:44:36;;;;;;;2.90;1.50;;;;;;;15.67;52.97;97089.34;8287895;28;20206;-66
2021/05/14 06:48:41;;;;;;;4.13;2.20;;;;;;;15.81;51.91;97089.09;8287759;28;20201;-66
2021/05/14 06:52:44;;;;;;;2.20;1.20;;;;;;;16.03;51.74;97090.00;8287205;28;20256;-66
2021/05/14 06:56:46;;;;;;;2.30;1.10;;;;;;;16.16;50.76;97092.44;8287478;28;20512;-66
2021/05/14 07:00:49;;;;;;;2.13;0.90;;;;;;;16.59;48.33;97094.16;8286849;28;20206;-66
2021/05/14 07:04:52;;;;;;;2.37;0.90;;;;;;;16.63;48.50;97095.56;8286801;28;20221;-66
2021/05/14 07:08:55;;;;;;;1.17;0.70;;;;;;;16.79;48.77;97105.56;8286937;28;20554;-66
2021/05/14 07:12:57;;;;;;;2.33;0.97;;;;;;;16.96;46.48;97097.19;8286345;28;20226;-66
2021/05/14 07:17:00;;;;;;;2.93;1.00;;;;;;;17.14;46.00;97101.84;8286656;28;20202;-66
2021/05/14 07:21:04;;;;;;;2.73;1.77;;;;;;;17.42;46.39;97099.47;8286681;28;20428;-66
2021/05/14 07:25:27;;;;;;;1.93;1.00;;;;;;;17.63;45.82;97102.84;8286600;28;20200;-66
2021/05/14 07:29:29;;;;;;;2.07;0.90;;;;;;;18.02;44.07;97107.38;8286368;28;20616;-66
2021/05/14 07:33:31;;;;;;;1.47;0.83;;;;;;;18.07;42.49;97111.25;8286355;28;20225;-66
2021/05/14 07:37:35;;;;;;;3.90;0.90;;;;;;;18.14;43.23;97103.66;8285860;28;20201;-66
2021/05/14 07:41:37;;;;;;;1.20;0.80;;;;;;;18.56;42.16;97100.78;8285915;28;20213;-66
2021/05/14 07:45:40;;;;;;;1.97;0.90;;;;;;;18.63;42.59;97098.44;8286090;28;20202;-66
2021/05/14 07:49:42;;;;;;;1.27;0.90;;;;;;;18.95;43.29;97108.63;8285693;28;20229;-66
2021/05/14 07:53:46;;;;;;;0.90;0.80;;;;;;;18.97;42.67;97106.69;8284274;28;20229;-66
2021/05/14 07:57:48;;;;;;;1.70;1.00;;;;;;;18.95;44.07;97112.06;8285457;28;20501;-66
2021/05/14 08:01:50;;;;;;;1.00;0.80;;;;;;;19.32;40.73;97110.44;8285445;28;20202;-67
2021/05/14 08:05:53;;;;;;;1.20;0.67;;;;;;;19.45;40.31;97126.72;8285117;28;20233;-66
2021/05/14 08:09:56;;;;;;;1.50;0.63;;;;;;;19.86;39.39;97127.25;8285504;28;20213;-67
2021/05/14 08:13:59;;;;;;;1.33;0.60;;;;;;;19.71;36.39;97126.88;8285109;28;20236;-66
2021/05/14 08:18:02;;;;;;;4.27;0.80;;;;;;;19.79;35.18;97117.47;8284887;28;20227;-67
2021/05/14 08:22:04;;;;;;;2.20;0.90;;;;;;;19.96;36.22;97129.81;8284125;28;20203;-67
2021/05/14 08:26:09;;;;;;;5.93;1.20;;;;;;;20.03;36.45;97119.53;8283084;28;20201;-66
2021/05/14 08:30:13;;;;;;;3.73;0.90;;;;;;;20.27;36.35;97117.16;8281840;28;20198;-67
2021/05/14 08:34:16;;;;;;;1.63;0.83;;;;;;;20.47;35.17;97128.38;8283170;28;20228;-67
2021/05/14 08:38:18;;;;;;;1.23;0.70;;;;;;;20.84;35.07;97126.56;8283837;28;20222;-66
2021/05/14 08:42:21;;;;;;;1.93;0.70;;;;;;;20.97;34.49;97126.97;8283487;28;20522;-66
2021/05/14 08:46:24;;;;;;;5.20;0.80;;;;;;;21.00;34.99;97126.69;8281191;28;20290;-66
2021/05/14 08:50:30;;;;;;;5.43;1.07;;;;;;;21.08;34.50;97124.09;8283438;28;20205;-66
2021/05/14 08:54:33;;;;;;;3.43;1.00;;;;;;;21.22;35.37;97114.81;8283884;28;20222;-67
2021/05/14 08:58:38;;;;;;;2.20;0.60;;;;;;;21.09;33.59;97119.66;8282582;28;20208;-67
2021/05/14 09:02:40;;;;;;;2.57;0.70;;;;;;;21.37;34.43;97122.13;8284697;28;20212;-66
2021/05/14 09:06:44;;;;;;;3.43;1.10;;;;;;;22.01;38.09;97139.25;8290459;28;20296;-77
2021/05/14 09:10:47;;;;;;;3.77;0.90;;;;;;;22.82;36.10;97136.91;8290172;28;20212;-77
2021/05/14 09:14:50;;;;;;;2.30;0.80;;;;;;;23.07;34.92;97121.88;8290565;28;20224;-77
2021/05/14 09:18:53;;;;;;;2.37;0.73;;;;;;;23.25;33.96;97128.78;8290675;28;20219;-77
2021/05/14 09:22:55;;;;;;;2.97;0.70;;;;;;;22.92;32.70;97134.09;8290923;28;20488;-78
2021/05/14 09:26:58;;;;;;;1.80;0.77;;;;;;;21.71;32.06;97139.78;8289858;28;20212;-77
2021/05/14 09:31:09;;;;;;;1.43;0.63;;;;;;;21.78;35.65;97124.97;8289899;28;20520;-77
2021/05/14 09:35:12;;;;;;;0.90;0.50;;;;;;;22.03;34.60;97142.53;8289763;28;20202;-77
2021/05/14 09:39:14;;;;;;;1.43;0.53;;;;;;;21.67;34.65;97132.19;8289619;28;20220;-77
2021/05/14 09:43:17;;;;;;;2.73;0.70;;;;;;;21.14;35.03;97127.94;8289759;28;20208;-77
2021/05/14 09:47:31;;;;;;;1.00;0.60;;;;;;;20.94;37.27;97127.28;8289284;28;20201;-77
2021/05/14 09:51:34;;;;;;;1.83;0.63;;;;;;;20.78;37.07;97120.09;8289620;28;20325;-77
2021/05/14 09:55:39;;;;;;;1.87;0.80;;;;;;;22.30;32.56;97124.84;8289489;28;20213;-76
2021/05/14 09:59:41;;;;;;;1.50;0.60;;;;;;;21.58;35.84;97119.13;8289262;28;20503;-77
2021/05/14 10:03:45;;;;;;;2.43;0.70;;;;;;;22.20;33.26;97124.94;8289234;28;20231;-76
2021/05/14 10:07:47;;;;;;;2.47;0.90;;;;;;;22.48;33.54;97126.50;8288643;28;20253;-77
2021/05/14 10:11:50;;;;;;;1.00;0.70;;;;;;;22.75;34.72;97118.28;8288900;28;20408;-77
2021/05/14 10:15:54;;;;;;;4.70;0.80;;;;;;;21.55;34.98;97116.81;8287773;28;20531;-77
2021/05/14 10:19:58;;;;;;;1.20;0.60;;;;;;;21.62;37.17;97129.19;8288900;28;20203;-77
2021/05/14 10:24:01;;;;;;;1.00;0.60;;;;;;;21.03;35.19;97123.72;8288580;28;20259;-77
2021/05/14 10:28:06;;;;;;;1.40;0.70;;;;;;;21.14;36.67;97122.66;8288292;28;20214;-77
2021/05/14 10:32:08;;;;;;;0.70;0.40;;;;;;;21.47;36.89;97115.78;8288201;28;20239;-79
2021/05/14 10:36:12;;;;;;;0.80;0.50;;;;;;;21.41;35.17;97115.56;8287752;28;20205;-73
2021/05/14 10:40:43;;;;;;;4.00;1.00;;;;;;;21.28;34.41;97118.63;8287602;28;20220;-76
2021/05/14 10:44:48;;;;;;;6.17;0.80;;;;;;;21.50;37.43;97122.56;8287479;28;20209;-77
2021/05/14 10:49:01;;;;;;;3.90;0.70;;;;;;;21.61;37.40;97124.06;8287524;28;20500;-77
2021/05/14 10:53:29;;;;;;;3.47;0.87;;;;;;;22.34;36.32;97114.78;8285209;28;20247;-76
2021/05/14 10:57:48;;;;;;;3.90;0.60;;;;;;;23.00;33.33;97120.91;8284440;28;20260;-79
2021/05/14 11:01:50;;;;;;;1.60;0.67;;;;;;;23.37;32.29;97114.25;8285204;28;20235;-77
2021/05/14 11:06:08;;;;;;;1.53;0.80;;;;;;;23.28;31.10;97102.03;8290460;28;20244;-79
2021/05/14 11:10:32;;;;;;;2.87;0.73;;;;;;;23.01;33.04;97114.63;8301342;28;20212;-78
2021/05/14 11:14:42;;;;;;;2.70;0.50;;;;;;;23.57;32.22;97104.94;8301518;28;20221;-78
2021/05/14 11:18:50;;;;;;;6.73;0.90;;;;;;;23.15;32.38;97102.56;8289671;28;20501;-78
2021/05/14 11:22:53;;;;;;;6.77;1.07;;;;;;;22.59;34.89;97119.06;8286721;28;20402;-77
2021/05/14 11:27:01;;;;;;;4.40;0.67;;;;;;;22.04;35.50;97112.53;8286303;28;20212;-78
2021/05/14 11:31:03;;;;;;;1.57;0.70;;;;;;;21.70;36.74;97109.13;8285912;28;20224;-77
2021/05/14 11:35:14;;;;;;;3.97;0.60;;;;;;;21.45;36.46;97115.13;8285329;28;20228;-78
2021/05/14 11:39:22;;;;;;;5.23;0.80;;;;;;;21.42;36.62;97114.59;8283543;28;20497;-77
2021/05/14 11:43:29;;;;;;;3.10;1.00;;;;;;;21.62;37.05;97118.66;8285119;28;20213;-78
2021/05/14 11:47:32;;;;;;;7.97;1.00;;;;;;;21.56;36.51;97121.94;8282673;28;20204;-79
2021/05/14 11:51:35;;;;;;;2.13;0.70;;;;;;;21.50;36.27;97116.47;8284784;28;20194;-78
2021/05/14 11:55:39;;;;;;;4.33;0.97;;;;;;;21.21;36.85;97117.59;8285324;28;20276;-77
2021/05/14 11:59:45;;;;;;;4.67;0.80;;;;;;;21.44;36.88;97124.03;8285085;28;20206;-75
2021/05/14 12:03:56;;;;;;;4.27;0.60;;;;;;;21.12;35.75;97116.72;8284913;28;20399;-75
2021/05/14 12:08:09;;;;;;;5.57;0.70;;;;;;;21.19;35.92;97117.75;8284578;28;20397;-77
2021/05/14 12:12:19;;;;;;;2.37;0.77;;;;;;;21.77;35.73;97110.97;8282360;28;20220;-75
2021/05/14 12:16:23;;;;;;;4.00;0.87;;;;;;;21.54;35.99;97107.28;8282951;28;20199;-77
2021/05/14 12:20:30;;;;;;;2.27;0.70;;;;;;;21.33;35.60;97102.38;8283588;28;20212;-77
2021/05/14 12:24:39;;;;;;;2.63;0.60;;;;;;;20.89;37.38;97103.25;8283569;28;20264;-76
2021/05/14 12:28:45;;;;;;;6.77;0.73;;;;;;;20.44;37.02;97102.34;8282730;28;20484;-76
2021/05/14 12:32:58;;;;;;;1.80;0.90;;;;;;;21.79;34.13;97103.72;8281515;28;20221;-76
2021/05/14 12:37:01;;;;;;;0.77;0.40;;;;;;;21.60;31.35;97101.38;8283198;28;20307;-76
2021/05/14 12:41:19;;;;;;;2.73;0.80;;;;;;;21.37;33.56;97096.63;8283691;28;20237;-75
2021/05/14 12:45:22;;;;;;;2.23;0.60;;;;;;;20.98;33.80;97093.59;8284666;28;20209;-75
2021/05/14 12:49:26;;;;;;;4.00;0.77;;;;;;;20.77;34.24;97100.06;8284092;28;20208;-74
2021/05/14 12:53:28;;;;;;;4.10;0.80;;;;;;;20.43;35.69;97102.53;8283790;28;20292;-75
2021/05/14 12:57:32;;;;;;;1.13;0.60;;;;;;;20.24;36.30;97101.69;8284434;28;20201;-74
2021/05/14 13:01:35;;;;;;;1.93;0.80;;;;;;;20.44;36.71;97109.44;8283688;28;20202;-76
2021/05/14 13:05:39;;;;;;;3.00;1.00;;;;;;;20.55;36.07;97111.84;8282719;28;20406;-74
2021/05/14 13:09:48;;;;;;;9.63;0.97;;;;;;;20.58;36.59;97103.66;8283740;28;20201;-75
2021/05/14 13:13:50;;;;;;;2.77;0.60;;;;;;;20.79;35.29;97102.50;8284397;28;20603;-76
2021/05/14 13:17:53;;;;;;;2.33;0.80;;;;;;;20.80;34.25;97102.34;8283670;28;20213;-77
2021/05/14 13:21:56;;;;;;;5.50;0.80;;;;;;;20.44;35.32;97107.63;8283736;28;20214;-66
2021/05/14 13:26:00;;;;;;;8.73;1.17;;;;;;;21.13;34.73;97110.47;8283492;28;20206;-66
2021/05/14 13:30:03;;;;;;;7.87;1.20;;;;;;;20.68;35.81;97107.03;8283955;28;20202;-65
2021/05/14 13:34:06;;;;;;;6.03;1.00;;;;;;;20.75;35.74;97101.97;8283156;28;20221;-67
2021/05/14 13:38:09;;;;;;;4.03;1.20;;;;;;;21.13;34.51;97120.19;8282936;28;20200;-67
2021/05/14 13:42:12;;;;;;;5.50;0.83;;;;;;;22.07;33.96;97111.41;8282783;28;20210;-67
2021/05/14 13:46:14;;;;;;;1.90;0.47;;;;;;;21.76;31.84;97105.88;8282805;28;20492;-67
2021/05/14 13:50:16;;;;;;;2.47;0.50;;;;;;;22.18;31.00;97103.19;8287546;28;20204;-67
2021/05/14 13:54:20;;;;;;;2.90;0.63;;;;;;;22.14;30.79;97096.59;8287729;28;20296;-67
2021/05/14 13:58:23;;;;;;;13.93;1.30;;;;;;;22.42;30.14;97097.13;8289042;28;20220;-66
2021/05/14 14:02:25;;;;;;;5.20;0.67;;;;;;;22.17;30.71;97092.81;8288790;28;20247;-69
2021/05/14 14:06:28;;;;;;;2.27;0.53;;;;;;;22.29;30.15;97093.34;8288868;28;20241;-67
2021/05/14 14:10:31;;;;;;;2.90;0.60;;;;;;;22.27;31.18;97085.59;8288145;28;20275;-68
2021/05/14 14:14:33;;;;;;;3.93;0.50;;;;;;;21.14;33.30;97080.53;8288475;28;20242;-66
2021/05/14 14:18:36;;;;;;;2.77;0.50;;;;;;;21.80;33.33;97094.00;8287520;28;20208;-66
2021/05/14 14:22:39;;;;;;;2.30;0.60;;;;;;;21.65;33.28;97092.00;8295389;28;20206;-67
2021/05/14 14:26:43;;;;;;;0.77;0.40;;;;;;;21.69;32.39;97100.41;8287731;28;20276;-67
2021/05/14 14:30:45;;;;;;;5.03;0.53;;;;;;;21.99;32.43;97092.91;8287509;28;20209;-67
2021/05/14 14:34:48;;;;;;;6.03;1.00;;;;;;;21.95;32.67;97088.94;8287757;28;20234;-67
2021/05/14 14:39:07;;;;;;;1.27;0.70;;;;;;;22.12;32.73;97087.19;8288374;28;20209;-66
2021/05/14 14:43:12;;;;;;;0.97;0.47;;;;;;;22.13;32.03;97086.22;8287318;28;20210;-67
2021/05/14 14:47:14;;;;;;;2.57;0.80;;;;;;;22.08;31.43;97085.88;8284526;28;20220;-67
2021/05/14 14:51:17;;;;;;;1.87;0.60;;;;;;;22.18;32.63;97075.97;8287411;28;20206;-67
2021/05/14 14:55:19;;;;;;;3.83;0.50;;;;;;;22.12;32.24;97072.19;8287084;28;20229;-66
2021/05/14 14:59:23;;;;;;;1.17;0.47;;;;;;;22.02;32.63;97067.06;8287070;28;20244;-67
2021/05/14 15:03:25;;;;;;;4.60;0.50;;;;;;;22.29;32.65;97057.22;8286282;28;20319;-67
2021/05/14 15:07:28;;;;;;;0.80;0.50;;;;;;;22.14;34.29;97064.97;8286391;28;20254;-68
2021/05/14 15:11:30;;;;;;;6.23;0.60;;;;;;;22.04;33.70;97065.09;8287113;28;20395;-67
2021/05/14 15:15:34;;;;;;;1.57;0.60;;;;;;;22.13;34.05;97060.66;8287648;28;20320;-64
2021/05/14 15:19:36;;;;;;;2.57;0.40;;;;;;;21.96;33.52;97059.00;8306492;28;20555;-64
2021/05/14 15:23:39;;;;;;;4.53;0.40;;;;;;;21.67;32.67;97061.06;8288707;28;20609;-64
2021/05/14 15:27:41;;;;;;;1.00;0.50;;;;;;;21.91;31.89;97059.47;8318971;28;20204;-63
2021/05/14 15:31:45;;;;;;;4.37;0.63;;;;;;;21.94;33.03;97061.78;8319069;28;20212;-63
2021/05/14 15:35:47;;;;;;;3.33;0.70;;;;;;;21.92;31.86;97061.13;8287195;28;20224;-64
2021/05/14 15:39:49;;;;;;;1.10;0.50;;;;;;;21.79;32.26;97058.94;8286243;28;20224;-64
2021/05/14 15:43:52;;;;;;;1.50;0.40;;;;;;;21.81;32.46;97062.25;8285974;28;20382;-64
2021/05/14 15:47:55;;;;;;;4.13;0.83;;;;;;;21.32;34.18;97061.19;8285859;28;20201;-64
2021/05/14 15:51:58;;;;;;;1.27;0.50;;;;;;;21.54;33.90;97054.59;8309786;28;20208;-65
2021/05/14 15:56:01;;;;;;;2.23;0.30;;;;;;;21.42;32.25;97057.47;8317874;28;20467;-64
2021/05/14 16:00:05;;;;;;;2.43;0.50;;;;;;;21.56;33.08;97060.53;8294097;28;20227;-64
2021/05/14 16:04:10;;;;;;;0.93;0.40;;;;;;;21.59;33.27;97061.03;8285023;28;20208;-65
2021/05/14 16:08:13;;;;;;;1.47;0.47;;;;;;;21.48;33.53;97054.22;8285289;28;20249;-65
2021/05/14 16:12:15;;;;;;;4.43;0.50;;;;;;;21.37;32.54;97058.94;8284131;28;20201;-65
2021/05/14 16:16:17;;;;;;;2.47;0.60;;;;;;;21.30;33.08;97056.09;8284742;28;20243;-64
2021/05/14 16:20:33;;;;;;;1.87;0.40;;;;;;;21.00;35.02;97049.50;8285188;28;20204;-65
2021/05/14 16:24:36;;;;;;;3.47;0.70;;;;;;;21.02;34.52;97048.41;8284574;28;20208;-64
2021/05/14 16:28:39;;;;;;;1.27;0.50;;;;;;;20.91;34.36;97042.59;8284914;28;20225;-65
2021/05/14 16:32:41;;;;;;;1.77;0.33;;;;;;;21.10;34.36;97050.25;8284549;28;20235;-65
2021/05/14 16:36:45;;;;;;;2.17;0.50;;;;;;;21.04;34.31;97046.44;8284203;28;20268;-64
2021/05/14 16:40:48;;;;;;;7.93;0.80;;;;;;;20.93;34.53;97041.44;8284632;28;20501;-64
2021/05/14 16:45:14;;;;;;;2.60;0.50;;;;;;;20.88;34.04;97033.16;8284320;28;20209;-65
2021/05/14 16:49:16;;;;;;;3.00;0.70;;;;;;;20.92;34.20;97038.94;8284732;28;20256;-64
2021/05/14 16:53:23;;;;;;;1.27;0.50;;;;;;;20.59;35.17;97043.97;8314138;28;20236;-64
2021/05/14 16:57:26;;;;;;;0.80;0.50;;;;;;;20.66;35.21;97039.78;8316789;28;20216;-64
2021/05/14 17:01:28;;;;;;;6.73;0.67;;;;;;;20.46;35.14;97045.19;8316641;28;20251;-65
2021/05/14 17:05:32;;;;;;;0.80;0.60;;;;;;;20.38;35.81;97049.56;8283748;28;20234;-65
2021/05/14 17:09:35;;;;;;;7.63;1.30;;;;;;;20.21;36.12;97046.78;8282294;28;20401;-65
2021/05/14 17:13:38;;;;;;;3.20;0.80;;;;;;;20.30;35.80;97050.31;8283826;28;20297;-66
2021/05/14 17:17:40;;;;;;;15.83;1.37;;;;;;;20.29;36.55;97046.84;8284145;28;20202;-64
2021/05/14 17:21:43;;;;;;;5.87;0.70;;;;;;;20.23;35.31;97050.09;8284215;28;20210;-65
2021/05/14 17:25:47;;;;;;;6.17;1.20;;;;;;;20.25;35.63;97055.19;8288274;28;20284;-64
2021/05/14 17:29:49;;;;;;;12.83;1.20;;;;;;;20.09;37.01;97061.16;8290156;28;20391;-65
2021/05/14 17:33:53;;;;;;;5.53;0.83;;;;;;;19.97;36.61;97055.28;8289280;28;20235;-64
2021/05/14 17:37:56;;;;;;;6.23;0.73;;;;;;;20.02;36.92;97058.28;8289797;28;20210;-64
2021/05/14 17:42:00;;;;;;;6.70;0.90;;;;;;;20.02;37.43;97057.47;8289649;28;20223;-64
2021/05/14 17:46:04;;;;;;;7.47;1.40;;;;;;;19.96;38.01;97064.13;8289238;28;20210;-64
2021/05/14 17:50:07;;;;;;;18.53;2.53;;;;;;;19.84;37.98;97068.78;8289606;28;20205;-73
2021/05/14 17:54:10;;;;;;;18.70;2.77;;;;;;;19.67;37.45;97056.41;8288650;28;20225;-73
2021/05/14 17:58:14;;;;;;;12.47;1.83;;;;;;;19.50;38.45;97066.72;8289324;28;20204;-70
2021/05/14 18:02:19;;;;;;;21.80;3.37;;;;;;;19.46;38.40;97068.00;8289126;28;20202;-75
2021/05/14 18:06:22;;;;;;;15.63;2.13;;;;;;;19.30;38.97;97068.59;8289197;28;20502;-76
2021/05/14 18:10:25;;;;;;;23.80;2.97;;;;;;;19.22;39.93;97070.31;8289140;28;20430;-76
2021/05/14 18:14:28;;;;;;;11.33;1.50;;;;;;;19.11;40.65;97066.03;8287662;28;20233;-75
2021/05/14 18:18:40;;;;;;;4.60;0.80;;;;;;;19.01;42.38;97073.94;8287626;28;20208;-75
2021/05/14 18:22:44;;;;;;;1.20;0.57;;;;;;;18.99;42.79;97072.44;8287919;28;20225;-74
2021/05/14 18:26:46;;;;;;;5.10;0.97;;;;;;;18.97;42.04;97071.78;8285715;28;20201;-75
2021/05/14 18:30:50;;;;;;;1.57;1.20;;;;;;;18.95;42.42;97080.59;8287612;28;20212;-76
2021/05/14 18:34:53;;;;;;;6.23;2.40;;;;;;;18.76;42.57;97075.38;8299961;28;20221;-75
2021/05/14 18:38:56;;;;;;;3.10;2.30;;;;;;;18.65;42.67;97080.75;8302171;28;20261;-75
2021/05/14 18:42:58;;;;;;;3.23;2.43;;;;;;;18.50;43.02;97075.13;8294677;28;20257;-76
2021/05/14 18:47:01;;;;;;;2.53;1.60;;;;;;;18.35;43.48;97083.41;8286917;28;20198;-76
2021/05/14 18:51:05;;;;;;;2.43;1.40;;;;;;;18.26;41.83;97084.25;8287281;28;20201;-75
2021/05/14 18:55:09;;;;;;;1.87;1.60;;;;;;;18.25;44.68;97092.25;8283067;28;20221;-76
2021/05/14 18:59:11;;;;;;;5.00;3.37;;;;;;;18.16;43.80;97096.50;8288001;28;20198;-74
2021/05/14 19:03:15;;;;;;;6.87;4.47;;;;;;;18.08;44.79;97098.97;8288063;28;20205;-75
2021/05/14 19:07:19;;;;;;;3.97;3.17;;;;;;;18.03;44.54;97106.41;8286463;28;20240;-79
2021/05/14 19:11:22;;;;;;;3.20;2.63;;;;;;;18.01;44.79;97113.56;8287089;28;20204;-80